• Join FlightAware (Why Join?)
  • Login
  • US Flag 
04:50AM EST


 

Airport Tracker/Info


-or-


 

Live Flight TrackerFlight Track Log ✈ VNR160 ✈ 17-Apr-2013 ✈ KPBI - KSAT

Flight Track Log - Related Links

Times and Time Zones

All times are in EDT time to prevent confusion due to time zone crossing. See the VNR160 flight status page for this flight to view local times or setup timezone preferences in your user account.

Time Position Orientation Groundspeed Altitude Reporting Facility
EDT Latitude Longitude Course Direction KTS MPH feet Rate Location/Type
05:43PM 26.7539 -80.0369 322° Northwest 118 136 5,700  Level Miami Center
05:44PM 26.7656 -80.0814 286° West 132 152 7,900 2,040 Climbing Miami Center
05:45PM 26.7808 -80.1378 287° West 172 198 9,800 1,860 Climbing Miami Center
05:46PM 26.7983 -80.1986 288° West 192 221 11,700 1,680 Climbing Miami Center
05:47PM 27.0491 -80.3783 322° Northwest  Level FlightAware Approximate
05:47PM 26.8156 -80.2644 286° West 210 242 13,200  Level Miami Center
05:48PM 27.1107 -80.4323 322° Northwest  Level FlightAware Approximate
05:48PM 26.8328 -80.3347 285° West 235 270 15,100  Level Miami Center
05:49PM 26.8500 -80.4003 286° West 240 276 16,700 1,500 Climbing Miami Center
05:50PM 26.8689 -80.4756 286° West 240 276 18,100 1,500 Climbing Miami Center
05:51PM 26.8881 -80.5483 286° West 245 282 19,800 1,620 Climbing Miami Center
05:52PM 26.9089 -80.6233 287° West 245 282 21,400 1,500 Climbing Miami Center
05:53PM 26.9281 -80.6986 286° West 245 282 22,900 1,440 Climbing Miami Center
05:54PM 26.9467 -80.7761 285° West 245 282 24,300 1,260 Climbing Miami Center
05:55PM 26.9675 -80.8558 286° West 255 293 25,500 1,140 Climbing Miami Center
05:56PM 26.9903 -80.9361 288° West 263 303 26,600 720 Climbing Miami Center
05:57PM 27.0131 -81.0206 287° West 274 315 27,000 180 Climbing Miami Center
05:58PM 27.0392 -81.1242 286° West 294 338 27,000  Level Miami Center
05:59PM 27.0656 -81.2208 287° West 315 362 27,000  Level Miami Center
06:00PM 27.0917 -81.3244 286° West 330 380 27,000  Level Miami Center
06:01PM 27.1178 -81.4256 286° West 347 399 27,000  Level Miami Center
06:02PM 27.1436 -81.5269 286° West 347 399 27,000 480 Level Miami Center
06:03PM 27.1697 -81.6261 287° West 341 392 28,000 960 Climbing Miami Center
06:04PM 27.1897 -81.7133 284° West 328 377 29,000 960 Climbing Miami Center
06:05PM 27.2139 -81.8006 287° West 309 356 30,000 480 Climbing Miami Center
06:06PM 27.2397 -81.8997 286° West 304 350 30,000  Level Miami Center
06:07PM 27.2653 -82.0014 286° West 319 367 30,000  Level Miami Center
06:08PM 27.2872 -82.0911 285° West 335 386 30,000  Level Miami Center
06:09PM 27.3128 -82.1928 286° West 341 392 30,000 600 Level Miami Center
06:10PM 27.3400 -82.3014 286° West 341 392 31,200 960 Climbing Miami Center
06:11PM 27.3617 -82.3914 285° West 317 365 32,000 360 Climbing Miami Center
06:12PM 27.3872 -82.4836 287° West 312 359 32,000  Level Miami Center
06:13PM 27.4067 -82.5711 284° West 317 365 32,000 300 Level Miami Center
06:14PM 27.4258 -82.6703 282° West 323 372 32,700 900 Climbing Miami Center
06:15PM 27.4447 -82.7717 282° West 312 359 33,900 1,140 Climbing Miami Center
06:16PM 27.4578 -82.8589 280° West 298 343 35,000 1,020 Climbing Miami Center
06:17PM 27.4772 -82.9394 285° West 281 323 36,000 480 Climbing Miami Center
06:18PM 27.4925 -83.0222 282° West 276 318 36,000  Level Miami Center
06:19PM 27.5075 -83.1119 281° West 281 323 36,000  Level Miami Center
06:20PM 27.5222 -83.2039 280° West 292 336 36,000  Level Miami Center
06:21PM 27.5408 -83.2986 283° West 302 348 36,000  Level Miami Center
06:22PM 27.5575 -83.3931 281° West 302 348 36,000  Level Miami Center
06:23PM 27.5739 -83.4900 281° West 313 360 36,000  Level Miami Center
06:24PM 27.5947 -83.5847 284° West 313 360 36,000  Level Miami Center
06:25PM 27.6089 -83.6817 279° West 313 360 36,000  Level Miami Center
06:26PM 27.6294 -83.7764 284° West 313 360 36,000  Level Miami Center
06:27PM 27.6456 -83.8733 281° West 318 366 36,000  Level Miami Center
06:28PM 27.6597 -83.9681 280° West 318 366 36,000  Level Miami Center
06:29PM 27.6778 -84.0653 282° West 318 366 36,000  Level Miami Center
06:30PM 27.6939 -84.1597 281° West 318 366 36,000  Level Miami Center
06:31PM 27.7056 -84.2567 278° West 318 366 36,000  Level Miami Center
06:32PM 27.7275 -84.3542 284° West 318 366 36,000  Level Miami Center
06:33PM 27.7411 -84.4511 279° West 318 366 36,000  Level Miami Center
06:34PM 27.7633 -84.5464 285° West 318 366 36,000  Level Miami Center
06:34PM 27.7714 -84.6022 279° West 331 381 36,000  Level Jacksonville Center
06:35PM 27.7911 -84.6894 284° West 317 365 36,000  Level Jacksonville Center
06:36PM 27.8044 -84.7786 280° West 317 365 36,000  Level Jacksonville Center
06:37PM 27.8217 -84.8775 281° West 319 367 36,000  Level Jacksonville Center
06:38PM 27.8367 -84.9789 280° West 319 367 36,000  Level Jacksonville Center
06:39PM 27.8539 -85.0753 281° West 319 367 36,000  Level Jacksonville Center
06:40PM 27.8689 -85.1742 280° West 320 368 36,000  Level Jacksonville Center
06:41PM 27.8881 -85.2661 283° West 314 361 36,000  Level Jacksonville Center
06:42PM 27.9175 -85.3678 288° West 321 369 36,000  Level Jacksonville Center
06:43PM 27.9450 -85.4603 289° West 321 369 36,000  Level Jacksonville Center
06:44PM 27.9742 -85.5572 289° West 326 375 36,000  Level Jacksonville Center
06:45PM 28.0036 -85.6544 289° West 326 375 36,000  Level Jacksonville Center
06:46PM 28.0306 -85.7492 288° West 326 375 36,000  Level Jacksonville Center
06:47PM 28.0619 -85.8442 291° West 324 373 36,000  Level Jacksonville Center
06:48PM 28.0908 -85.9436 288° West 324 373 36,000  Level Jacksonville Center
06:49PM 28.1217 -86.0436 289° West 330 380 36,000  Level Jacksonville Center
06:50PM 28.1486 -86.1383 288° West 330 380 36,000  Level Jacksonville Center
06:51PM 28.1756 -86.2311 288° West 322 371 36,000  Level Jacksonville Center
06:52PM 28.2061 -86.3333 289° West 327 376 36,000  Level Jacksonville Center
06:53PM 28.2350 -86.4264 289° West 322 371 36,000  Level Jacksonville Center
06:54PM 28.2594 -86.5167 287° West 322 371 36,000  Level Jacksonville Center
06:55PM 28.2942 -86.6217 291° West 322 371 36,000  Level Jacksonville Center
06:56PM 28.3186 -86.7122 287° West 322 371 36,000  Level Jacksonville Center
06:57PM 28.3450 -86.8075 287° West 322 371 36,000 240 Level Jacksonville Center
06:58PM 28.3694 -86.8956 288° West 316 364 36,500 540 Climbing Jacksonville Center
06:59PM 28.3936 -86.9861 287° West 316 364 37,100 480 Climbing Jacksonville Center
07:00PM 28.4139 -87.0697 285° West 296 341 37,500 360 Climbing Jacksonville Center
07:01PM 28.4342 -87.1531 285° West 281 323 37,900 240 Climbing Jacksonville Center
07:02PM 28.4622 -87.2439 289° West 286 329 38,000  Climbing Jacksonville Center
07:04PM 28.5044 -87.4056 287° West 290 334 38,000  Level Houston Center
07:05PM 28.5250 -87.4922 285° West 290 334 38,000  Level Houston Center
07:06PM 28.5517 -87.5875 288° West 298 343 38,000  Level Houston Center
07:07PM 28.5800 -87.6961 287° West 302 348 38,000  Level Houston Center
07:08PM 28.6033 -87.7850 287° West 301 346 38,000  Level Houston Center
07:09PM 28.6286 -87.8769 287° West 301 346 38,000  Level Houston Center
07:10PM 28.6525 -87.9661 287° West 299 344 38,000  Level Houston Center
07:12PM 28.6794 -88.0583 288° West 299 344 38,000  Level Houston Center
07:13PM 28.6911 -88.1406 279° West 291 335 38,000  Level Houston Center
07:14PM 28.7169 -88.2489 285° West 293 337 38,000  Level Houston Center
07:15PM 28.7392 -88.3364 286° West 292 336 38,000  Level Houston Center
07:16PM 28.7614 -88.4217 287° West 288 331 38,000  Level Houston Center
07:17PM 28.7828 -88.5092 286° West 286 329 38,000  Level Houston Center
07:18PM 28.8050 -88.5936 287° West 284 327 38,000  Level Houston Center
07:19PM 28.8264 -88.6786 286° West 281 323 38,000  Level Houston Center
07:20PM 28.8517 -88.7794 286° West 278 320 38,000  Level Houston Center
07:21PM 28.8728 -88.8639 286° West 277 319 38,000  Level Houston Center
07:22PM 28.8939 -88.9461 286° West 275 316 38,000  Level Houston Center
07:23PM 28.9108 -89.0308 283° West 273 314 38,000  Level Houston Center
07:24PM 28.9219 -89.1172 278° West 273 314 38,000  Level Houston Center
07:25PM 28.9358 -89.2044 280° West 277 319 38,000  Level Houston Center
07:26PM 28.9514 -89.3072 280° West 277 319 38,000  Level Houston Center
07:27PM 28.9639 -89.3950 279° West 278 320 38,000  Level Houston Center
07:28PM 28.9758 -89.4819 279° West 278 320 38,000  Level Houston Center
07:29PM 28.9903 -89.5631 282° West 271 312 38,000  Level Houston Center
07:30PM 29.0022 -89.6503 279° West 273 314 38,000  Level Houston Center
07:31PM 29.0136 -89.7375 279° West 276 318 38,000  Level Houston Center
07:32PM 29.0281 -89.8411 279° West 277 319 38,000  Level Houston Center
07:33PM 29.0414 -89.9256 280° West 274 315 38,000  Level Houston Center
07:34PM 29.0533 -90.0106 279° West 273 314 38,000  Level Houston Center
07:35PM 29.0650 -90.0956 279° West 272 313 38,000  Level Houston Center
07:36PM 29.0769 -90.1806 279° West 271 312 38,000  Level Houston Center
07:37PM 29.0894 -90.2658 280° West 272 313 38,000  Level Houston Center
07:38PM 29.1039 -90.3675 279° West 271 312 38,000  Level Houston Center
07:39PM 29.1158 -90.4519 279° West 270 311 38,000  Level Houston Center
07:40PM 29.1278 -90.5367 279° West 270 311 38,000  Level Houston Center
07:42PM 29.1369 -90.6178 277° West 265 305 38,000  Level Houston Center
07:43PM 29.1486 -90.7019 279° West 267 307 38,000  Level Houston Center
07:44PM 29.1597 -90.7864 279° West 268 308 38,000  Level Houston Center
07:45PM 29.1733 -90.8878 279° West 269 310 38,000  Level Houston Center
07:46PM 29.1844 -90.9725 279° West 268 308 38,000  Level Houston Center
07:47PM 29.1956 -91.0569 279° West 269 310 38,000  Level Houston Center
07:48PM 29.2069 -91.1400 279° West 266 306 38,000  Level Houston Center
07:49PM 29.2183 -91.2247 279° West 268 308 38,000  Level Houston Center
07:50PM 29.2297 -91.3089 279° West 268 308 38,000  Level Houston Center
07:51PM 29.2431 -91.4081 279° West 265 305 38,000  Level Houston Center
07:52PM 29.2533 -91.4925 278° West 267 307 38,000  Level Houston Center
07:53PM 29.2642 -91.5753 279° West 265 305 38,000  Level Houston Center
07:54PM 29.2753 -91.6589 279° West 265 305 38,000  Level Houston Center
07:55PM 29.2861 -91.7411 279° West 264 304 38,000  Level Houston Center
07:56PM 29.2978 -91.8406 278° West 262 302 38,000  Level Houston Center
07:57PM 29.3089 -91.9225 279° West 262 302 38,000  Level Houston Center
07:58PM 29.3186 -92.0053 278° West 263 303 38,000  Level Houston Center
07:59PM 29.3289 -92.0839 279° West 262 302 38,000  Level Houston Center
08:00PM 29.3392 -92.1664 278° West 261 300 38,000  Level Houston Center
08:01PM 29.3522 -92.2647 279° West 261 300 38,000  Level Houston Center
08:02PM 29.3619 -92.3481 278° West 263 303 38,000  Level Houston Center
08:03PM 29.3725 -92.4303 278° West 262 302 38,000  Level Houston Center
08:04PM 29.3831 -92.5131 278° West 263 303 38,000  Level Houston Center
08:05PM 29.3919 -92.5936 277° West 257 296 38,000  Level Houston Center
08:06PM 29.4036 -92.6875 278° West 260 299 38,000  Level Houston Center
08:07PM 29.4136 -92.7739 278° West 258 297 38,000 -240 Level Houston Center
08:08PM 29.4247 -92.8561 279° West 259 298 37,600 -600 Descending Houston Center
08:09PM 29.4347 -92.9431 278° West 270 311 36,800 -780 Descending Houston Center
08:10PM 29.4450 -93.0314 278° West 277 319 36,000 -780 Descending Houston Center
08:12PM 29.4553 -93.1186 278° West 277 319 35,300 -720 Descending Houston Center
08:13PM 29.4667 -93.2072 278° West 279 321 34,600 -780 Descending Houston Center
08:14PM 29.4772 -93.3083 277° West 282 325 33,800 -780 Descending Houston Center
08:15PM 29.4894 -93.3994 279° West 288 331 33,100 -720 Descending Houston Center
08:16PM 29.4997 -93.4933 277° West 294 338 32,400 -540 Descending Houston Center
08:17PM 29.5097 -93.5858 277° West 293 337 32,000 -240 Descending Houston Center
08:18PM 29.5228 -93.6961 278° West 293 337 32,000  Level Houston Center
08:19PM 29.5322 -93.7900 277° West 294 338 32,000  Level Houston Center
08:20PM 29.5428 -93.8822 278° West 294 338 32,000  Level Houston Center
08:21PM 29.5528 -93.9744 277° West 293 337 32,000  Level Houston Center
08:22PM 29.5642 -94.0686 278° West 294 338 32,000  Level Houston Center
08:23PM 29.5753 -94.1617 278° West 295 339 32,000  Level Houston Center
08:24PM 29.5875 -94.2719 277° West 293 337 32,000  Level Houston Center
08:25PM 29.5972 -94.3647 277° West 293 337 32,000  Level Houston Center
08:26PM 29.6069 -94.4564 277° West 292 336 32,000  Level Houston Center
08:27PM 29.6158 -94.5497 276° West 294 338 32,000  Level Houston Center
08:28PM 29.6261 -94.6417 277° West 291 335 32,000  Level Houston Center
08:29PM 29.6358 -94.7339 277° West 291 335 32,000  Level Houston Center
08:30PM 29.6472 -94.8447 277° West 292 336 32,000  Level Houston Center
08:31PM 29.6572 -94.9358 277° West 291 335 32,000  Level Houston Center
08:32PM 29.6672 -95.0264 277° West 288 331 32,000  Level Houston Center
08:33PM 29.6744 -95.1164 275° West 296 341 32,000  Level Houston Center
08:34PM 29.6844 -95.2261 276° West 291 335 32,000  Level Houston Center
08:35PM 29.6969 -95.3222 279° West 303 349 32,000  Level Houston Center
08:36PM 29.7053 -95.4147 276° West 297 342 32,000  Level Houston Center
08:37PM 29.7139 -95.5061 276° West 292 336 32,000  Level Houston Center
08:38PM 29.7239 -95.5997 277° West 294 338 32,000  Level Houston Center
08:39PM 29.7339 -95.7108 276° West 293 337 32,000  Level Houston Center
08:40PM 29.7417 -95.8025 276° West 289 333 32,000  Level Houston Center
08:42PM 29.7506 -95.8967 276° West 294 338 32,000  Level Houston Center
08:43PM 29.7600 -95.9894 277° West 295 339 32,000  Level Houston Center
08:44PM 29.7692 -96.0822 277° West 290 334 32,000  Level Houston Center
08:45PM 29.7781 -96.1761 276° West 294 338 32,000  Level Houston Center
08:46PM 29.7861 -96.2875 275° West 294 338 32,000 -60 Level Houston Center
08:47PM 29.7936 -96.3800 275° West 292 336 31,900 -780 Descending Houston Center
08:48PM 29.8011 -96.4703 275° West 287 330 30,400 -1,560 Descending Houston Center
08:49PM 29.8083 -96.5631 275° West 290 334 28,700 -1,680 Descending Houston Center
08:50PM 29.8147 -96.6533 275° West 288 331 27,000 -1,800 Descending Houston Center
08:51PM 29.8225 -96.7558 275° West 276 318 25,000 -1,800 Descending Houston Center
08:52PM 29.8283 -96.8422 274° West 271 312 23,300 -1,680 Descending Houston Center
08:53PM 29.8350 -96.9292 275° West 273 314 21,600 -1,680 Descending Houston Center
08:54PM 29.8414 -97.0342 274° West 323 372 19,900 -1,680 Descending Houston Center
08:55PM 29.8492 -97.1297 275° West 308 354 18,200 -1,920 Descending Houston Center
08:56PM 29.8578 -97.2408 275° West 292 336 16,000 -1,920 Descending Houston Center
08:57PM 29.8631 -97.3311 274° West 285 328 14,300 -1,380 Descending Houston Center
08:58PM 29.8683 -97.4197 274° West 279 321 13,200 -1,020 Descending Houston Center
08:59PM 29.8739 -97.5031 274° West 265 305 12,200 -1,020 Descending Houston Center
09:00PM 29.8800 -97.6053 274° West 275 316 11,100 -1,080 Descending Houston Center
09:01PM 29.8850 -97.6778 275° West 274 315 10,200 -1,020 Descending Houston Center
09:02PM 29.8886 -97.7569 273° West 272 313 9,300 -1,020 Descending Houston Center
09:02PM 29.8900 -97.7781 274° West 272 313 9,000 -1,140 Descending Houston Center
09:03PM 29.8950 -97.8453 275° West 273 314 8,200 -1,020 Descending Houston Center
09:03PM 29.8914 -97.8719 261° West 272 313 8,000 -480 Descending Houston Center
09:04PM 29.8658 -97.9333 244° Southwest 253 291 7,700 -1,020 Descending Houston Center
09:05PM 29.8367 -98.0044 245° Southwest 250 288 6,200 -900 Descending Houston Center
09:06PM 29.8108 -98.0631 243° Southwest 199 229 6,000 -120 Descending Houston Center
09:07PM 29.7833 -98.1267 244° Southwest 223 257 6,000  Level Houston Center
09:07PM 29.7797 -98.1369 248° West 225 259 6,000  Level Houston Center
09:08PM 29.7594 -98.1875 245° Southwest 231 266 6,000  Level Houston Center
09:08PM 29.7483 -98.2136 244° Southwest 228 262 6,000  Level Houston Center
09:09PM 29.7253 -98.2686 244° Southwest 230 265 6,000  Level Houston Center
09:10PM 29.6978 -98.3347 244° Southwest 229 264 6,000  Level Houston Center
09:11PM 29.6717 -98.3956 244° Southwest 230 265 6,000 -420 Level Houston Center
09:11PM 29.6700 -98.4167 265° West 221 254 5,500 -1,800 Descending Houston Center
09:12PM 29.6731 -98.4556 275° West 192 221 4,400 -1,680 Descending Houston Center
09:12PM 29.6733 -98.4778 271° West 196 226 3,800 -1,260 Descending Houston Center
09:13PM 29.6814 -98.5242 281° West 201 231 3,000 -780 Descending Houston Center
09:14PM 29.6842 -98.5469 278° West 204 235 3,000  Level Houston Center
09:14PM 29.6889 -98.5833 279° West 207 238 3,000  Level Houston Center
09:15PM 29.6858 -98.6047 261° West 206 237 3,000 60 Level Houston Center
09:15PM 29.6619 -98.6322 225° Southwest 193 222 3,100  Climbing Houston Center
09:16PM 29.6439 -98.6192 148° Southeast 161 185 3,000 -120 Descending Houston Center
09:16PM 29.6294 -98.5978 128° Southeast 158 182 3,000  Level Houston Center
09:17PM 29.6167 -98.5792 128° Southeast 155 178 3,000 -300 Level Houston Center
09:17PM 29.6036 -98.5672 141° Southeast 122 140 2,700 -600 Descending Houston Center
09:18PM 29.5944 -98.5522 125° Southeast 123 142 2,400 -720 Descending Houston Center
09:18PM 29.5819 -98.5383 136° Southeast 113 130 2,000 -720 Descending Houston Center
09:19PM 29.5711 -98.5211 126° Southeast 119 137 1,700 -600 Descending Houston Center
09:19PM 29.5606 -98.5097 137° Southeast 122 140 1,400 -600 Descending Houston Center
09:20PM 29.5492 -98.4922 127° Southeast 121 139 1,100 -600 Descending Houston Center
09:22PM 29.5340 -98.4691 189° South  Level Estimated
09:29PM 29.5333 -98.4667 North  Level FlightAware Approximate